Sun City, Arizona
Current Conditions -  °F | °C
As of 2:58 AM on Monday 20 Oct 2014 (Local Time) from KLUF Reporting Station
Haze Haze  
Wind Chill: 67°   Ceiling: Unl
Heat Index: 67°   Visibility: 5mi
Dew Point: 58°   Wind: 1mph
Humidity: 75%   Direction: 10°N
Pressure: 29.87"   Gusts: NA
Location:  33.6°N, 112.28°W
Report Text: KLUF 200958Z AUTO 01001KT 5SM HZ CLR 19/15 A2987 RMK AO2 SLP104 T01920147 $
Loading
Personal Weather Stations






























Interactive Weather Map
Tropical Storm Tracking
New forecast layout! Learn more

10-Day Weather Forecast

Advertisements
Track Severe Weather on mobile